createdAt,value
2018-05-02T00:00:47.939Z,14.8
2018-05-02T00:02:07.765Z,14.7
2018-05-02T00:03:35.237Z,14.6
2018-05-02T00:04:55.070Z,14.7
2018-05-02T00:06:14.882Z,14.7
2018-05-02T00:07:34.704Z,14.6
2018-05-02T00:08:54.543Z,14.7
2018-05-02T00:10:14.368Z,14.6
2018-05-02T00:11:34.216Z,14.7
2018-05-02T00:12:54.030Z,14.7
2018-05-02T00:14:26.533Z,14.7
2018-05-02T00:15:53.968Z,14.7
2018-05-02T00:17:13.801Z,14.6
2018-05-02T00:18:33.637Z,14.4
2018-05-02T00:20:01.128Z,14.3
2018-05-02T00:21:20.960Z,14.2
2018-05-02T00:22:40.797Z,14.3
2018-05-02T00:24:00.678Z,14.4
2018-05-02T00:25:25.555Z,14.4
2018-05-02T00:26:52.983Z,14.4
2018-05-02T00:28:12.808Z,14.5
2018-05-02T00:29:32.647Z,14.5
2018-05-02T00:30:52.470Z,14.5
2018-05-02T00:32:12.299Z,14.4
2018-05-02T00:33:32.114Z,14.4
2018-05-02T00:34:51.951Z,14.5
2018-05-02T00:36:14.303Z,14.5
2018-05-02T00:37:36.729Z,14.6
2018-05-02T00:38:56.597Z,14.6
2018-05-02T00:40:16.453Z,14.5
2018-05-02T00:41:36.344Z,14.4
2018-05-02T00:42:56.224Z,14.4
2018-05-02T00:44:16.074Z,14.4
2018-05-02T00:45:38.426Z,14.4
2018-05-02T00:46:58.243Z,14.3
2018-05-02T00:48:18.070Z,14.3
2018-05-02T00:49:37.909Z,14.2
2018-05-02T00:51:02.872Z,14.1
2018-05-02T00:52:22.699Z,14.1
2018-05-02T00:53:45.053Z,14.1
2018-05-02T00:55:15.007Z,14.1
2018-05-02T00:56:39.913Z,14
2018-05-02T00:57:59.735Z,13.1
2018-05-02T00:59:19.608Z,13.2
2018-05-02T01:00:39.482Z,13.1
2018-05-02T01:02:06.880Z,14
2018-05-02T01:03:26.727Z,14
2018-05-02T01:04:46.577Z,14
2018-05-02T01:06:06.444Z,14
2018-05-02T01:07:28.802Z,14.1
2018-05-02T01:08:58.755Z,14
2018-05-02T01:10:18.579Z,13.9
2018-05-02T01:11:38.447Z,13.9
2018-05-02T01:13:03.352Z,13.9
2018-05-02T01:14:28.239Z,13.9
2018-05-02T01:17:10.105Z,13.9
2018-05-02T01:18:34.983Z,13.9
2018-05-02T01:19:57.357Z,13.4
2018-05-02T01:21:22.311Z,13.4
2018-05-02T01:22:42.129Z,13.5
2018-05-02T01:24:01.959Z,13.6
2018-05-02T01:25:24.344Z,13.7
2018-05-02T01:26:44.180Z,14
2018-05-02T01:28:11.644Z,14.1
2018-05-02T01:29:31.529Z,13.6
2018-05-02T01:30:51.380Z,14.8
2018-05-02T01:32:21.369Z,14.9
2018-05-02T01:33:46.268Z,14.8
2018-05-02T01:35:06.116Z,14.8
2018-05-02T01:36:28.472Z,14.9
2018-05-02T01:37:48.292Z,14.9
2018-05-02T01:39:10.660Z,14.9
2018-05-02T01:40:35.561Z,14.8
2018-05-02T01:41:55.427Z,14.6
2018-05-02T01:43:17.843Z,14.5
2018-05-02T01:44:37.659Z,14.6
2018-05-02T01:45:57.468Z,14.7
2018-05-02T01:47:17.333Z,14.5
2018-05-02T01:48:42.276Z,14.4
2018-05-02T01:50:04.624Z,14.4
2018-05-02T01:51:24.448Z,14.5
2018-05-02T01:52:44.273Z,14.4
2018-05-02T01:54:14.205Z,14.4
2018-05-02T01:55:41.642Z,14.5
2018-05-02T01:57:01.496Z,14.1
2018-05-02T01:58:21.341Z,14.4
2018-05-02T01:59:43.693Z,14.4
2018-05-02T02:01:11.184Z,14.4
2018-05-02T02:02:36.100Z,14.5
2018-05-02T02:03:55.949Z,14.4
2018-05-02T02:05:18.295Z,14.5
2018-05-02T02:06:38.175Z,14.4
2018-05-02T02:07:58.048Z,14.5
2018-05-02T02:09:17.870Z,14.3
2018-05-02T02:10:37.698Z,14.4
2018-05-02T02:12:02.591Z,14.4
2018-05-02T02:13:22.441Z,14.3
2018-05-02T02:14:42.270Z,14.3
2018-05-02T02:16:14.776Z,14.3
2018-05-02T02:17:37.125Z,14.3
2018-05-02T02:18:56.954Z,14.2
2018-05-02T02:20:16.816Z,14.2
2018-05-02T02:21:39.195Z,14.2
2018-05-02T02:22:59.077Z,14.4
2018-05-02T02:24:18.943Z,14.7
2018-05-02T02:25:38.796Z,14.8
2018-05-02T02:26:58.621Z,14.6
2018-05-02T02:28:20.999Z,14.7
2018-05-02T02:29:43.364Z,14.2
2018-05-02T02:31:03.185Z,14
2018-05-02T02:32:25.559Z,13.8
2018-05-02T02:33:47.904Z,14.1
2018-05-02T02:35:12.777Z,14.1
2018-05-02T02:36:32.597Z,14.1
2018-05-02T02:37:52.445Z,14
2018-05-02T02:39:12.271Z,14
2018-05-02T02:40:34.626Z,14
2018-05-02T02:41:54.440Z,13.9
2018-05-02T02:43:19.345Z,13.9
2018-05-02T02:44:39.201Z,13.8
2018-05-02T02:45:59.066Z,13.8
2018-05-02T02:47:18.928Z,13.8
2018-05-02T02:48:38.749Z,13.7
2018-05-02T02:49:58.567Z,13.6
2018-05-02T02:51:18.440Z,13.8
2018-05-02T02:52:38.352Z,13.8
2018-05-02T02:53:58.221Z,13.8
2018-05-02T02:55:18.138Z,14.1
2018-05-02T02:56:37.984Z,14.3
2018-05-02T02:57:57.810Z,14.2
2018-05-02T02:59:25.238Z,14.5
2018-05-02T03:00:50.183Z,14.5
2018-05-02T03:02:10.027Z,14.7
2018-05-02T03:03:29.841Z,14.4
2018-05-02T03:04:49.713Z,14.6
2018-05-02T03:06:09.543Z,14.6
2018-05-02T03:07:29.402Z,14.5
2018-05-02T03:08:49.222Z,14.5
2018-05-02T03:10:09.067Z,13.1
2018-05-02T03:11:36.521Z,13.5
2018-05-02T03:12:56.353Z,13.5
2018-05-02T03:14:18.702Z,14.7
2018-05-02T03:15:38.522Z,14.8
2018-05-02T03:16:58.345Z,14.8
2018-05-02T03:18:18.164Z,14.8
2018-05-02T03:19:40.592Z,14.8
2018-05-02T03:21:00.445Z,14.7
2018-05-02T03:22:20.320Z,14.5
2018-05-02T03:23:40.151Z,14.2
2018-05-02T03:24:59.970Z,13.9
2018-05-02T03:26:22.361Z,13.9
2018-05-02T03:27:42.192Z,13.9
2018-05-02T03:29:02.009Z,13.8
2018-05-02T03:30:21.827Z,13.7
2018-05-02T03:31:44.217Z,13.9
2018-05-02T03:33:04.089Z,13.8
2018-05-02T03:34:23.967Z,13.9
2018-05-02T03:35:43.847Z,14
2018-05-02T03:37:08.768Z,14.1
2018-05-02T03:38:36.217Z,14
2018-05-02T03:40:06.158Z,14.1
2018-05-02T03:41:31.070Z,14.1
2018-05-02T03:42:50.938Z,14
2018-05-02T03:44:13.332Z,14
2018-05-02T03:45:38.265Z,14
2018-05-02T03:47:03.140Z,14.1
2018-05-02T03:48:22.971Z,14.1
2018-05-02T03:49:42.841Z,13.9
2018-05-02T03:51:02.658Z,14
2018-05-02T03:52:22.485Z,13.9
2018-05-02T03:53:42.303Z,13.8
2018-05-02T03:55:02.126Z,14
2018-05-02T03:56:21.967Z,14.1
2018-05-02T03:57:41.792Z,13.8
2018-05-02T03:59:01.667Z,13.7
2018-05-02T04:00:21.485Z,13.9
2018-05-02T04:01:41.309Z,13.8
2018-05-02T04:03:01.125Z,13.9
2018-05-02T04:04:20.972Z,13.8
2018-05-02T04:05:43.327Z,13.8
2018-05-02T04:07:05.733Z,13.8
2018-05-02T04:08:30.701Z,13.8
2018-05-02T04:10:00.709Z,13.8
2018-05-02T04:11:20.554Z,13.8
2018-05-02T04:12:42.899Z,13.9
2018-05-02T04:14:02.737Z,13.8
2018-05-02T04:15:25.116Z,13.8
2018-05-02T04:16:47.512Z,13.7
2018-05-02T04:18:07.333Z,13.6
2018-05-02T04:19:29.735Z,13.6
2018-05-02T04:20:52.143Z,13.6
2018-05-02T04:22:17.074Z,13.6
2018-05-02T04:23:36.895Z,13.6
2018-05-02T04:24:59.252Z,13.6
2018-05-02T04:26:19.083Z,13.8
2018-05-02T04:27:38.895Z,13.7
2018-05-02T04:28:58.741Z,13.8
2018-05-02T04:30:18.598Z,13.7
2018-05-02T04:31:38.416Z,13.7
2018-05-02T04:33:03.290Z,13.7
2018-05-02T04:34:28.188Z,13.6
2018-05-02T04:35:53.087Z,13.5
2018-05-02T04:37:12.943Z,13.5
2018-05-02T04:38:35.355Z,13.6
2018-05-02T04:40:02.819Z,13.5
2018-05-02T04:41:22.697Z,13.5
2018-05-02T04:42:55.207Z,13.5
2018-05-02T04:44:20.156Z,13.4
2018-05-02T04:45:39.999Z,13.5
2018-05-02T04:46:59.839Z,14
2018-05-02T04:48:24.787Z,13.8
2018-05-02T04:49:47.141Z,13.7
2018-05-02T04:51:17.110Z,13.8
2018-05-02T04:52:36.975Z,13.8
2018-05-02T04:53:56.815Z,13.9
2018-05-02T04:55:19.246Z,13.9
2018-05-02T04:56:39.090Z,14
2018-05-02T04:57:58.966Z,13.9
2018-05-02T04:59:18.830Z,13.7
2018-05-02T05:00:38.659Z,13.6
2018-05-02T05:02:03.536Z,13.7
2018-05-02T05:03:30.937Z,13.7
2018-05-02T05:04:53.341Z,13.8
2018-05-02T05:06:18.230Z,13.8
2018-05-02T05:07:38.101Z,14
2018-05-02T05:08:57.985Z,14
2018-05-02T05:10:20.376Z,14
2018-05-02T05:11:42.731Z,14.1
2018-05-02T05:13:10.162Z,14.1
2018-05-02T05:14:30.066Z,14.1
2018-05-02T05:15:52.445Z,14.1
2018-05-02T05:17:12.284Z,14.7
2018-05-02T05:18:32.156Z,14.8
2018-05-02T05:19:52.029Z,14.8
2018-05-02T05:21:11.847Z,14.7
2018-05-02T05:22:31.659Z,14.6
2018-05-02T05:23:51.534Z,14.6
2018-05-02T05:25:11.390Z,14.6
2018-05-02T05:26:31.268Z,14.5
2018-05-02T05:27:51.101Z,14.6
2018-05-02T05:29:11.008Z,14.6
2018-05-02T05:30:30.871Z,14.6
2018-05-02T05:31:53.220Z,14.8
2018-05-02T05:33:13.038Z,15.1
2018-05-02T05:34:32.870Z,15.1
2018-05-02T05:35:52.690Z,15
2018-05-02T05:37:15.073Z,14.8
2018-05-02T05:38:34.926Z,14.8
2018-05-02T05:39:57.271Z,14.7
2018-05-02T05:41:19.698Z,14.9
2018-05-02T05:42:42.052Z,14.9
2018-05-02T05:44:01.912Z,14.9
2018-05-02T05:45:31.841Z,14.9
2018-05-02T05:46:59.315Z,14.8
2018-05-02T05:48:19.172Z,14.8
2018-05-02T05:49:39.044Z,14.7
2018-05-02T05:50:58.914Z,14.8
2018-05-02T05:52:21.301Z,14.6
2018-05-02T05:53:48.725Z,14.6
2018-05-02T05:55:11.088Z,14.7
2018-05-02T05:56:33.440Z,14.5
2018-05-02T05:57:53.318Z,14.6
2018-05-02T05:59:18.258Z,14.5
2018-05-02T06:00:45.727Z,14.5
2018-05-02T06:02:15.754Z,14.5
2018-05-02T06:03:38.153Z,14.6
2018-05-02T06:04:57.976Z,14.7
2018-05-02T06:06:17.794Z,14.7
2018-05-02T06:07:37.663Z,14.7
2018-05-02T06:09:00.058Z,14.8
2018-05-02T06:10:19.928Z,14.6
2018-05-02T06:11:39.791Z,14.6
2018-05-02T06:12:59.633Z,14.6
2018-05-02T06:14:24.560Z,14.5
2018-05-02T06:15:44.416Z,14.6
2018-05-02T06:17:16.921Z,13.8
2018-05-02T06:18:39.269Z,14.8
2018-05-02T06:20:06.731Z,15
2018-05-02T06:21:34.158Z,14.9
2018-05-02T06:22:53.974Z,15
2018-05-02T06:24:21.376Z,14.9
2018-05-02T06:25:41.198Z,14.8
2018-05-02T06:27:11.201Z,15
2018-05-02T06:28:33.611Z,15
2018-05-02T06:29:53.436Z,14.9
2018-05-02T06:31:13.305Z,14.9
2018-05-02T06:32:38.191Z,15
2018-05-02T06:33:58.065Z,14.9
2018-05-02T06:35:17.910Z,15
2018-05-02T06:36:37.741Z,13.8
2018-05-02T06:37:57.711Z,14.6
2018-05-02T06:39:17.641Z,14.7
2018-05-02T06:40:37.468Z,14.8
2018-05-02T06:41:57.284Z,14.9
2018-05-02T06:43:17.164Z,14.9
2018-05-02T06:44:37.015Z,14.8
2018-05-02T06:45:56.856Z,14.9
2018-05-02T06:47:16.676Z,14.9
2018-05-02T06:48:44.078Z,14.9
2018-05-02T06:50:09.030Z,14.9
2018-05-02T06:51:28.853Z,14.9
2018-05-02T06:52:48.678Z,14.9
2018-05-02T06:54:08.501Z,15
2018-05-02T06:55:30.884Z,15
2018-05-02T06:56:50.705Z,15.1
2018-05-02T06:58:15.645Z,15.1
2018-05-02T06:59:35.479Z,15.2
2018-05-02T07:00:55.384Z,15.3
2018-05-02T07:02:22.793Z,15.3
2018-05-02T07:03:42.608Z,15.5
2018-05-02T07:05:02.470Z,15.5
2018-05-02T07:06:24.845Z,15.5
2018-05-02T07:07:54.878Z,15.5
2018-05-02T07:09:14.732Z,14.9
2018-05-02T07:10:34.581Z,15
2018-05-02T07:11:54.435Z,14.6
2018-05-02T07:13:16.800Z,15.5
2018-05-02T07:14:39.184Z,15.3
2018-05-02T07:15:59.008Z,15.4
2018-05-02T07:17:26.488Z,15.4
2018-05-02T07:18:48.843Z,15.4
2018-05-02T07:20:11.185Z,15.5
2018-05-02T07:21:31.024Z,15.5
2018-05-02T07:22:50.855Z,15.5
2018-05-02T07:24:15.737Z,15.5
2018-05-02T07:25:38.099Z,15.5
2018-05-02T07:27:03.053Z,15.8
2018-05-02T07:28:25.398Z,15.8
2018-05-02T07:29:45.245Z,15.7
2018-05-02T07:31:05.092Z,15.5
2018-05-02T07:32:24.943Z,15.6
2018-05-02T07:33:44.825Z,15.6
2018-05-02T07:35:04.671Z,15.6
2018-05-02T07:36:24.564Z,15.2
2018-05-02T07:37:46.916Z,15.2
2018-05-02T07:39:06.738Z,15.2
2018-05-02T07:40:26.552Z,15.2
2018-05-02T07:41:48.896Z,15.3
2018-05-02T07:43:11.295Z,15.3
2018-05-02T07:44:31.147Z,15.4
2018-05-02T07:46:06.153Z,15.5
2018-05-02T07:47:25.970Z,16.3
2018-05-02T07:48:45.791Z,16.4
2018-05-02T07:50:08.154Z,16.4
2018-05-02T07:51:28.027Z,16.4
2018-05-02T07:52:47.861Z,16.5
2018-05-02T07:54:07.682Z,16.5
2018-05-02T07:55:30.041Z,16.5
2018-05-02T07:56:54.967Z,16.4
2018-05-02T07:58:14.821Z,16.5
2018-05-02T07:59:34.673Z,16.5
2018-05-02T08:00:54.555Z,16.5
2018-05-02T08:02:16.903Z,16.5
2018-05-02T08:03:36.775Z,16.5
2018-05-02T08:04:59.164Z,16.5
2018-05-02T08:06:19.002Z,16.5
2018-05-02T08:07:38.880Z,16.5
2018-05-02T08:09:01.282Z,16.5
2018-05-02T08:10:26.199Z,16.6
2018-05-02T08:11:48.565Z,16.6
2018-05-02T08:13:08.380Z,16.6
2018-05-02T08:14:28.211Z,16.6
2018-05-02T08:15:50.563Z,16.6
2018-05-02T08:17:10.384Z,16.6
2018-05-02T08:18:30.235Z,16.6
2018-05-02T08:20:00.202Z,16.7
2018-05-02T08:21:20.020Z,16.7
2018-05-02T08:22:44.919Z,16.6
2018-05-02T08:24:04.765Z,16.6
2018-05-02T08:25:29.714Z,16.7
2018-05-02T08:26:57.132Z,16.7
2018-05-02T08:28:16.946Z,16.7
2018-05-02T08:29:36.789Z,16.7
2018-05-02T08:30:59.208Z,16.7
2018-05-02T08:32:21.550Z,16.7
2018-05-02T08:33:46.473Z,16.7
2018-05-02T08:35:06.300Z,16.7
2018-05-02T08:36:26.120Z,16.7
2018-05-02T08:37:48.487Z,16.7
2018-05-02T08:39:08.357Z,16.7
2018-05-02T08:40:28.223Z,16.7
2018-05-02T08:41:48.044Z,16.7
2018-05-02T08:43:18.020Z,16.7
2018-05-02T08:44:37.838Z,16.7
2018-05-02T08:45:57.676Z,16.7
2018-05-02T08:47:20.031Z,16.8
2018-05-02T08:48:39.848Z,16.8
2018-05-02T08:50:04.785Z,16.8
2018-05-02T08:51:32.186Z,16.8
2018-05-02T08:52:54.580Z,16.8
2018-05-02T08:54:14.466Z,16.8
2018-05-02T08:55:34.314Z,16.8
2018-05-02T08:56:54.168Z,16.9
2018-05-02T08:58:16.519Z,16.9
2018-05-02T08:59:36.343Z,16.9
2018-05-02T09:00:56.201Z,16.9
2018-05-02T09:02:16.078Z,16.9
2018-05-02T09:03:43.575Z,16.9
2018-05-02T09:05:06.011Z,16.9
2018-05-02T09:06:25.874Z,16.9
2018-05-02T09:07:48.229Z,16.9
2018-05-02T09:09:10.591Z,16.9
2018-05-02T09:10:30.414Z,16.9
2018-05-02T09:11:50.249Z,17
2018-05-02T09:13:10.072Z,17
2018-05-02T09:14:29.886Z,17
2018-05-02T09:15:49.756Z,17
2018-05-02T09:17:09.615Z,17
2018-05-02T09:18:29.461Z,17.1
2018-05-02T09:19:51.837Z,17.1
2018-05-02T09:21:11.653Z,17.1
2018-05-02T09:22:31.475Z,17.1
2018-05-02T09:23:56.381Z,17.1
2018-05-02T09:25:18.805Z,17.1
2018-05-02T09:26:38.629Z,17.1
2018-05-02T09:27:58.464Z,17.2
2018-05-02T09:29:18.317Z,17.2
2018-05-02T09:30:38.184Z,17.1
2018-05-02T09:31:57.998Z,17.2
2018-05-02T09:33:17.817Z,17.2
2018-05-02T09:34:42.694Z,17.2
2018-05-02T09:36:05.083Z,17.2
2018-05-02T09:37:24.923Z,17.2
2018-05-02T09:38:47.277Z,17.2
2018-05-02T09:40:07.099Z,17.2
2018-05-02T09:41:26.918Z,17.3
2018-05-02T09:42:49.313Z,17.3
2018-05-02T09:44:14.410Z,17.3
2018-05-02T09:45:34.260Z,17.3
2018-05-02T09:46:59.237Z,17.3
2018-05-02T09:48:19.079Z,17.2
2018-05-02T09:49:38.943Z,17.2
2018-05-02T09:50:58.787Z,17.2
2018-05-02T09:52:23.757Z,17.2
2018-05-02T09:53:48.682Z,16.8
2018-05-02T09:55:26.235Z,16.9
2018-05-02T09:56:46.051Z,16.8
2018-05-02T09:58:05.868Z,16.9
2018-05-02T09:59:28.276Z,17
2018-05-02T10:00:48.112Z,16.9
2018-05-02T10:02:13.006Z,16.9
2018-05-02T10:03:32.861Z,16.9
2018-05-02T10:04:55.216Z,17.1
2018-05-02T10:06:15.084Z,17.1
2018-05-02T10:07:34.896Z,17.1
2018-05-02T10:09:02.314Z,17.1
2018-05-02T10:10:32.268Z,17.1
2018-05-02T10:12:02.263Z,17.1
2018-05-02T10:13:27.150Z,17.1
2018-05-02T10:14:49.509Z,17.1
2018-05-02T10:16:11.848Z,17.1
2018-05-02T10:17:34.258Z,17.2
2018-05-02T10:18:54.125Z,17.1
2018-05-02T10:20:13.970Z,17.1
2018-05-02T10:21:33.818Z,17.1
2018-05-02T10:22:53.659Z,17.1
2018-05-02T10:24:18.581Z,17.1
2018-05-02T10:25:38.413Z,17.1
2018-05-02T10:26:58.237Z,17.1
2018-05-02T10:28:20.644Z,17.2
2018-05-02T10:29:45.523Z,17.2
2018-05-02T10:31:05.346Z,17.2
2018-05-02T10:32:25.168Z,17.2
2018-05-02T10:33:52.588Z,17.2
2018-05-02T10:35:14.941Z,17.2
2018-05-02T10:36:34.759Z,17.2
2018-05-02T10:37:54.588Z,17.2
2018-05-02T10:39:16.998Z,17.2
2018-05-02T10:40:39.374Z,17.2
2018-05-02T10:41:59.268Z,17.1
2018-05-02T10:43:21.628Z,17.2
2018-05-02T10:44:41.461Z,17.2
2018-05-02T10:46:01.301Z,17.2
2018-05-02T10:47:21.122Z,17.2
2018-05-02T10:48:48.564Z,17.2
2018-05-02T10:50:08.405Z,17.2
2018-05-02T10:51:40.933Z,17.2
2018-05-02T10:53:08.365Z,17.2
2018-05-02T10:54:30.712Z,17.3
2018-05-02T10:55:50.617Z,17.2
2018-05-02T10:57:10.437Z,17.2
2018-05-02T10:58:30.267Z,17.2
2018-05-02T10:59:50.098Z,17.3
2018-05-02T11:01:09.954Z,17.3
2018-05-02T11:02:34.877Z,17.3
2018-05-02T11:04:04.857Z,17.4
2018-05-02T11:05:24.674Z,17.4
2018-05-02T11:06:44.550Z,17.4
2018-05-02T11:08:04.418Z,17.5
2018-05-02T11:09:24.237Z,17.5
2018-05-02T11:10:49.142Z,17.5
2018-05-02T11:12:14.067Z,17.5
2018-05-02T11:13:33.925Z,17.5
2018-05-02T11:14:56.272Z,17.5
2018-05-02T11:16:16.139Z,17.6
2018-05-02T11:17:36.013Z,17.6
2018-05-02T11:19:00.926Z,17.6
2018-05-02T11:20:20.760Z,17.6
2018-05-02T11:21:40.577Z,17.6
2018-05-02T11:23:05.473Z,17.6
2018-05-02T11:24:27.846Z,17.6
2018-05-02T11:25:50.202Z,17.6
2018-05-02T11:27:10.038Z,17.6
2018-05-02T11:28:32.414Z,17.7
2018-05-02T11:29:52.235Z,17.7
2018-05-02T11:31:14.628Z,17.7
2018-05-02T11:32:36.985Z,17.7
2018-05-02T11:33:56.820Z,17.7
2018-05-02T11:35:16.636Z,17.7
2018-05-02T11:36:41.508Z,17.7
2018-05-02T11:38:01.374Z,17.7
2018-05-02T11:39:21.230Z,17.8
2018-05-02T11:40:43.630Z,17.8
2018-05-02T11:42:03.475Z,17.8
2018-05-02T11:43:25.831Z,17.8
2018-05-02T11:44:50.750Z,17.8
2018-05-02T11:46:18.246Z,17.8
2018-05-02T11:47:40.602Z,17.9
2018-05-02T11:49:00.429Z,17.9
2018-05-02T11:50:25.309Z,17.8
2018-05-02T11:51:45.126Z,17.9
2018-05-02T11:53:07.474Z,17.9
2018-05-02T11:54:34.895Z,17.9
2018-05-02T11:55:54.738Z,17.9
2018-05-02T11:57:17.078Z,17.9
2018-05-02T11:58:36.891Z,18
2018-05-02T11:59:56.711Z,18
2018-05-02T12:01:16.563Z,18
2018-05-02T12:02:36.491Z,18
2018-05-02T12:03:56.321Z,18.1
2018-05-02T12:05:16.142Z,18.1
2018-05-02T12:06:35.958Z,18.2
2018-05-02T12:07:58.336Z,18.3
2018-05-02T12:09:20.676Z,18.5
2018-05-02T12:10:43.106Z,18.7
2018-05-02T12:12:05.499Z,19.1
2018-05-02T12:13:25.332Z,19.4
2018-05-02T12:14:47.723Z,19.6
2018-05-02T12:16:07.573Z,19.8
2018-05-02T12:17:32.464Z,20
2018-05-02T12:18:52.278Z,20.2
2018-05-02T12:20:14.622Z,20
2018-05-02T12:21:34.497Z,20.3
2018-05-02T12:23:04.467Z,20.1
2018-05-02T12:24:42.056Z,20.2
2018-05-02T12:26:01.913Z,20.4
2018-05-02T12:27:26.803Z,20.5
2018-05-02T12:28:51.680Z,20.5
2018-05-02T12:30:11.501Z,20.8
2018-05-02T12:31:33.883Z,20.4
2018-05-02T12:32:53.734Z,20
2018-05-02T12:34:18.694Z,19.8
2018-05-02T12:35:38.584Z,19.7
2018-05-02T12:36:58.431Z,19.7
2018-05-02T12:38:18.292Z,19.7
2018-05-02T12:39:38.135Z,19.6
2018-05-02T12:41:08.092Z,19.6
2018-05-02T12:42:30.481Z,19.6
2018-05-02T12:43:50.307Z,19.7
2018-05-02T12:45:10.131Z,19.7
2018-05-02T12:46:29.991Z,19.7
2018-05-02T12:47:49.828Z,19.6
2018-05-02T12:49:12.301Z,19.6
2018-05-02T12:50:32.133Z,19.3
2018-05-02T12:51:51.978Z,19.1
2018-05-02T12:53:11.801Z,19.1
2018-05-02T12:54:31.618Z,19.1
2018-05-02T12:55:51.491Z,19
2018-05-02T12:57:16.405Z,18.7
2018-05-02T12:58:36.243Z,18.6
2018-05-02T12:59:58.635Z,18.8
2018-05-02T13:01:18.514Z,18.9
2018-05-02T13:02:45.916Z,19.3
2018-05-02T13:04:10.833Z,19.4
2018-05-02T13:05:35.752Z,19.5
2018-05-02T13:06:55.577Z,19.6
2018-05-02T13:08:28.105Z,19.8
2018-05-02T13:09:50.459Z,19.8
2018-05-02T13:11:12.846Z,19.9
2018-05-02T13:12:32.671Z,20.1
2018-05-02T13:13:55.043Z,20.2
2018-05-02T13:15:14.873Z,20.5
2018-05-02T13:16:37.223Z,20
2018-05-02T13:18:04.653Z,22.1
2018-05-02T13:19:27.025Z,22.4
2018-05-02T13:20:46.879Z,22.6
2018-05-02T13:22:11.786Z,23
2018-05-02T13:23:34.147Z,23.1
2018-05-02T13:24:56.518Z,23.4
2018-05-02T13:26:16.329Z,23.5
2018-05-02T13:27:41.229Z,23.6
2018-05-02T13:29:06.105Z,23.6
2018-05-02T13:30:28.534Z,23.8
2018-05-02T13:31:50.883Z,23.8
2018-05-02T13:33:18.374Z,23.8
2018-05-02T13:34:40.815Z,23.8
2018-05-02T13:36:05.727Z,23.8
2018-05-02T13:37:25.546Z,23.9
2018-05-02T13:38:45.375Z,23.8
2018-05-02T13:40:10.307Z,23.7
2018-05-02T13:41:30.123Z,23.7
2018-05-02T13:42:49.946Z,23.7
2018-05-02T13:44:12.339Z,23.8
2018-05-02T13:45:32.199Z,23.7
2018-05-02T13:46:57.068Z,23.7
2018-05-02T13:48:16.912Z,23.7
2018-05-02T13:49:36.770Z,23.5
2018-05-02T13:51:04.196Z,23.4
2018-05-02T13:52:26.584Z,23.2
2018-05-02T13:53:48.986Z,23.1
2018-05-02T13:55:18.911Z,23.1
2018-05-02T13:56:38.753Z,23.1
2018-05-02T13:57:58.756Z,23
2018-05-02T13:59:23.629Z,23
2018-05-02T14:00:45.981Z,23
2018-05-02T14:02:05.803Z,22.9
2018-05-02T14:03:25.630Z,22.9
2018-05-02T14:04:45.445Z,22.9
2018-05-02T14:06:05.258Z,22.8
2018-05-02T14:07:30.140Z,22.7
2018-05-02T14:08:52.514Z,22.7
2018-05-02T14:10:14.878Z,22.6
2018-05-02T14:11:34.701Z,22.6
2018-05-02T14:12:59.600Z,22.6
2018-05-02T14:14:32.066Z,22.6
2018-05-02T14:15:57.035Z,22.5
2018-05-02T14:17:19.398Z,22.4
2018-05-02T14:18:39.247Z,22.4
2018-05-02T14:20:04.171Z,22.3
2018-05-02T14:21:24.063Z,22.2
2018-05-02T14:22:46.415Z,22.1
2018-05-02T14:24:16.363Z,22.1
2018-05-02T14:25:36.183Z,22
2018-05-02T14:26:56.078Z,22
2018-05-02T14:28:15.900Z,21.9
2018-05-02T14:29:38.300Z,21.8
2018-05-02T14:31:00.706Z,21.8
2018-05-02T14:32:25.586Z,21.7
2018-05-02T14:33:45.443Z,21.7
2018-05-02T14:35:05.269Z,21.6
2018-05-02T14:36:25.134Z,21.6
2018-05-02T14:37:45.006Z,21.6
2018-05-02T14:39:04.827Z,21.6
2018-05-02T14:40:29.711Z,21.6
2018-05-02T14:41:52.060Z,21.5
2018-05-02T14:43:11.920Z,21.5
2018-05-02T14:44:31.758Z,21.4
2018-05-02T14:45:54.126Z,21.4
2018-05-02T14:47:16.472Z,21.4
2018-05-02T14:48:36.339Z,21.3
2018-05-02T14:49:58.683Z,21.2
2018-05-02T14:51:18.543Z,21.2
2018-05-02T14:52:40.968Z,21.1
2018-05-02T14:54:00.834Z,21
2018-05-02T14:55:20.651Z,20.9
2018-05-02T14:56:45.531Z,20.9
2018-05-02T14:58:07.931Z,20.8
2018-05-02T14:59:27.801Z,20.8
2018-05-02T15:00:52.757Z,20.7
2018-05-02T15:02:12.617Z,20.7
2018-05-02T15:03:35.023Z,20.6
2018-05-02T15:04:54.894Z,20.6
2018-05-02T15:06:17.261Z,20.6
2018-05-02T15:07:37.125Z,20.6
2018-05-02T15:08:57.013Z,20.6
2018-05-02T15:10:32.007Z,20.6
2018-05-02T15:11:56.883Z,20.6
2018-05-02T15:13:19.250Z,20.6
2018-05-02T15:14:41.612Z,20.5
2018-05-02T15:16:03.990Z,20.5
2018-05-02T15:17:23.808Z,20.4
2018-05-02T15:18:43.663Z,20.3
2018-05-02T15:20:11.154Z,20.3
2018-05-02T15:21:31.017Z,20.2
2018-05-02T15:22:55.910Z,20.1
2018-05-02T15:24:15.724Z,20.1
2018-05-02T15:25:40.599Z,20.1
2018-05-02T15:27:03.013Z,20.1
2018-05-02T15:28:22.900Z,20
2018-05-02T15:29:45.262Z,20
2018-05-02T15:31:07.633Z,19.9
2018-05-02T15:32:30.028Z,19.9
2018-05-02T15:33:49.863Z,19.8
2018-05-02T15:35:09.723Z,19.8
2018-05-02T15:36:29.554Z,19.7
2018-05-02T15:37:56.968Z,19.7
2018-05-02T15:39:21.886Z,19.7
2018-05-02T15:40:41.710Z,19.6
2018-05-02T15:42:04.080Z,19.6
2018-05-02T15:43:26.437Z,19.5
2018-05-02T15:44:46.335Z,19.5
2018-05-02T15:46:08.690Z,19.5
2018-05-02T15:47:41.183Z,19.5
2018-05-02T15:49:06.056Z,19.4
2018-05-02T15:50:33.464Z,19.4
2018-05-02T15:51:55.930Z,19.4
2018-05-02T15:53:15.762Z,19.3
2018-05-02T15:54:38.138Z,19.3
2018-05-02T15:56:08.171Z,19.3
2018-05-02T15:57:28.040Z,19.3
2018-05-02T15:58:47.889Z,19.3
2018-05-02T16:00:12.792Z,19.3
2018-05-02T16:01:40.219Z,19.2
2018-05-02T16:03:00.043Z,19.1
2018-05-02T16:04:19.859Z,19.1
2018-05-02T16:05:52.362Z,19.1
2018-05-02T16:07:14.714Z,19
2018-05-02T16:08:37.075Z,19
2018-05-02T16:09:56.901Z,19
2018-05-02T16:11:16.791Z,19
2018-05-02T16:12:44.253Z,19
2018-05-02T16:14:04.066Z,19
2018-05-02T16:15:36.579Z,18.9
2018-05-02T16:16:56.422Z,18.9
2018-05-02T16:18:16.239Z,18.9
2018-05-02T16:19:36.129Z,18.8
2018-05-02T16:20:56.033Z,18.8
2018-05-02T16:22:18.376Z,18.8
2018-05-02T16:23:48.311Z,18.7
2018-05-02T16:25:08.148Z,18.7
2018-05-02T16:26:33.065Z,18.7
2018-05-02T16:27:55.626Z,18.7
2018-05-02T16:29:35.684Z,18.6
2018-05-02T16:31:00.570Z,18.6
2018-05-02T16:32:22.928Z,18.6
2018-05-02T16:33:45.283Z,18.6
2018-05-02T16:35:07.710Z,18.5
2018-05-02T16:36:35.179Z,18.5
2018-05-02T16:37:55.000Z,18.5
2018-05-02T16:39:17.430Z,18.4
2018-05-02T16:40:37.282Z,18.4
2018-05-02T16:41:57.155Z,18.4
2018-05-02T16:43:17.007Z,18.4
2018-05-02T16:44:41.941Z,18.4
2018-05-02T16:46:01.764Z,18.4
2018-05-02T16:47:21.614Z,18.3
2018-05-02T16:48:41.450Z,18.3
2018-05-02T16:50:01.267Z,18.3
2018-05-02T16:51:21.103Z,18.3
2018-05-02T16:52:48.564Z,18.3
2018-05-02T16:54:08.385Z,18.3
2018-05-02T16:55:33.270Z,18.2
2018-05-02T16:56:53.135Z,18.2
2018-05-02T16:58:12.993Z,18.2
2018-05-02T16:59:32.865Z,18.1
2018-05-02T17:00:52.714Z,18.1
2018-05-02T17:02:12.565Z,18.1
2018-05-02T17:03:32.451Z,18.1
2018-05-02T17:04:52.301Z,18.2
2018-05-02T17:06:17.228Z,18.3
2018-05-02T17:07:37.077Z,18.3
2018-05-02T17:08:59.435Z,18.4
2018-05-02T17:10:21.809Z,18.5
2018-05-02T17:11:41.714Z,18.6
2018-05-02T17:13:01.567Z,18.8
2018-05-02T17:14:21.448Z,18.9
2018-05-02T17:15:43.840Z,19
2018-05-02T17:17:03.657Z,19.1
2018-05-02T17:18:23.488Z,19.2
2018-05-02T17:19:43.315Z,19.4
2018-05-02T17:21:03.141Z,19.4
2018-05-02T17:22:23.006Z,19.8
2018-05-02T17:23:42.908Z,19.7
2018-05-02T17:25:02.789Z,19.8
2018-05-02T17:26:25.171Z,19.9
2018-05-02T17:27:44.986Z,20
2018-05-02T17:29:07.376Z,20.1
2018-05-02T17:30:27.224Z,20.2
2018-05-02T17:31:47.080Z,20.4
2018-05-02T17:33:06.936Z,20.3
2018-05-02T17:34:26.796Z,20.2
2018-05-02T17:35:46.631Z,20.2
2018-05-02T17:37:11.542Z,20.2
2018-05-02T17:38:31.398Z,20.3
2018-05-02T17:39:51.222Z,20.4
2018-05-02T17:41:13.574Z,20.4
2018-05-02T17:42:38.475Z,20.4
2018-05-02T17:43:58.290Z,20.4
2018-05-02T17:45:18.162Z,20.4
2018-05-02T17:46:40.513Z,20.5
2018-05-02T17:48:10.505Z,20.5
2018-05-02T17:49:30.342Z,20.6
2018-05-02T17:50:55.245Z,20.7
2018-05-02T17:52:15.130Z,20.9
2018-05-02T17:53:37.507Z,20.9
2018-05-02T17:54:57.396Z,21.1
2018-05-02T17:56:17.304Z,21.2
2018-05-02T17:57:37.188Z,21.2
2018-05-02T17:58:57.054Z,21.3
2018-05-02T18:00:19.417Z,21.2
2018-05-02T18:01:39.283Z,21.2
2018-05-02T18:02:59.102Z,21.2
2018-05-02T18:04:21.510Z,21.1
2018-05-02T18:05:46.428Z,21.1
2018-05-02T18:07:06.289Z,21
2018-05-02T18:08:28.635Z,20.9
2018-05-02T18:10:11.224Z,20.9
2018-05-02T18:11:33.580Z,20.8
2018-05-02T18:12:58.495Z,20.7
2018-05-02T18:14:25.930Z,20.7
2018-05-02T18:15:45.757Z,20.6
2018-05-02T18:17:10.648Z,20.6
2018-05-02T18:18:30.473Z,20.6